createdAt,value
2023-05-20T00:02:08.133Z,74.97
2023-05-20T00:04:45.631Z,75.04
2023-05-20T00:07:25.810Z,75.14
2023-05-20T00:10:04.011Z,75.06
2023-05-20T00:12:43.147Z,74.97
2023-05-20T00:15:22.881Z,75.06
2023-05-20T00:17:57.546Z,74.99
2023-05-20T00:20:35.268Z,74.96
2023-05-20T00:23:15.194Z,74.83
2023-05-20T00:25:51.383Z,74.80
2023-05-20T00:28:33.232Z,74.88
2023-05-20T00:31:11.404Z,74.89
2023-05-20T00:33:48.796Z,75.05
2023-05-20T00:36:26.983Z,75.05
2023-05-20T00:39:04.223Z,75.11
2023-05-20T00:41:41.735Z,75.27
2023-05-20T00:44:25.557Z,75.22
2023-05-20T00:47:02.423Z,75.28
2023-05-20T00:49:40.771Z,75.46
2023-05-20T00:52:20.254Z,75.52
2023-05-20T00:55:02.807Z,75.53
2023-05-20T00:57:36.802Z,75.65
2023-05-20T01:00:18.801Z,75.57
2023-05-20T01:02:56.318Z,75.62
2023-05-20T01:05:42.385Z,75.72
2023-05-20T01:08:24.306Z,75.80
2023-05-20T01:11:06.365Z,75.83
2023-05-20T01:13:47.854Z,75.86
2023-05-20T01:16:34.595Z,76.00
2023-05-20T01:19:22.617Z,76.11
2023-05-20T01:22:06.647Z,76.29
2023-05-20T01:24:41.505Z,76.43
2023-05-20T01:27:17.167Z,76.54
2023-05-20T01:29:57.280Z,76.61
2023-05-20T01:32:41.727Z,76.63
2023-05-20T01:35:19.454Z,76.88
2023-05-20T01:38:03.172Z,76.83
2023-05-20T01:40:42.013Z,77.22
2023-05-20T01:43:23.194Z,77.14
2023-05-20T01:46:03.537Z,77.32
2023-05-20T01:48:48.792Z,77.38
2023-05-20T01:51:27.142Z,77.39
2023-05-20T01:54:05.110Z,77.36
2023-05-20T01:56:43.486Z,77.28
2023-05-20T01:59:22.703Z,77.08
2023-05-20T02:02:00.857Z,77.23
2023-05-20T02:04:37.841Z,77.13
2023-05-20T02:07:12.588Z,77.24
2023-05-20T02:09:49.501Z,77.23
2023-05-20T02:12:27.781Z,77.44
2023-05-20T02:15:04.022Z,77.32
2023-05-20T02:17:45.904Z,77.37
2023-05-20T02:20:22.995Z,77.41
2023-05-20T02:22:58.524Z,77.34
2023-05-20T02:25:35.553Z,77.42
2023-05-20T02:28:12.955Z,77.48
2023-05-20T02:30:53.133Z,77.59
2023-05-20T02:33:29.829Z,77.68
2023-05-20T02:36:08.063Z,77.92
2023-05-20T02:38:43.581Z,77.90
2023-05-20T02:41:23.654Z,78.01
2023-05-20T02:44:03.214Z,78.02
2023-05-20T02:46:41.146Z,77.88
2023-05-20T02:49:19.740Z,77.94
2023-05-20T02:51:56.232Z,77.91
2023-05-20T02:54:45.200Z,77.98
2023-05-20T02:57:22.791Z,77.91
2023-05-20T03:00:02.692Z,78.23
2023-05-20T03:02:39.252Z,78.19
2023-05-20T03:05:16.313Z,78.10
2023-05-20T03:07:52.845Z,78.22
2023-05-20T03:10:28.903Z,78.13
2023-05-20T03:13:06.139Z,78.26
2023-05-20T03:15:44.664Z,78.19
2023-05-20T03:18:23.145Z,78.14
2023-05-20T03:21:03.397Z,78.27
2023-05-20T03:23:38.685Z,78.31
2023-05-20T03:26:16.873Z,78.41
2023-05-20T03:28:56.153Z,78.33
2023-05-20T03:31:33.277Z,78.28
2023-05-20T03:34:16.916Z,78.34
2023-05-20T03:36:57.660Z,78.33
2023-05-20T03:39:35.095Z,78.34
2023-05-20T03:42:13.086Z,78.43
2023-05-20T03:44:53.542Z,78.47
2023-05-20T03:47:33.333Z,78.36
2023-05-20T03:50:12.403Z,78.38
2023-05-20T03:52:52.098Z,78.24
2023-05-20T03:55:33.907Z,78.35
2023-05-20T03:58:21.882Z,78.38
2023-05-20T04:01:02.534Z,78.40
2023-05-20T04:03:40.198Z,78.34
2023-05-20T04:06:16.925Z,78.43
2023-05-20T04:09:03.470Z,78.28
2023-05-20T04:11:38.323Z,78.22
2023-05-20T04:14:16.119Z,78.19
2023-05-20T04:16:53.527Z,78.03
2023-05-20T04:19:33.927Z,78.00
2023-05-20T04:22:11.297Z,78.01
2023-05-20T04:24:48.264Z,77.87
2023-05-20T04:27:26.572Z,77.73
2023-05-20T04:30:03.442Z,77.69
2023-05-20T04:32:43.420Z,77.74
2023-05-20T04:35:20.782Z,77.64
2023-05-20T04:38:02.290Z,77.69
2023-05-20T04:40:39.844Z,77.47
2023-05-20T04:43:19.846Z,77.43
2023-05-20T04:46:02.126Z,77.48
2023-05-20T04:48:46.071Z,77.21
2023-05-20T04:51:22.629Z,77.12
2023-05-20T04:54:00.550Z,77.15
2023-05-20T04:56:40.570Z,76.89
2023-05-20T04:59:19.792Z,76.90
2023-05-20T05:01:58.121Z,76.92
2023-05-20T05:04:34.911Z,76.94
2023-05-20T05:07:11.679Z,76.78
2023-05-20T05:09:49.327Z,76.81
2023-05-20T05:12:26.702Z,76.72
2023-05-20T05:15:01.932Z,76.60
2023-05-20T05:17:38.668Z,76.34
2023-05-20T05:20:17.548Z,76.21
2023-05-20T05:22:56.701Z,76.11
2023-05-20T05:25:37.699Z,75.86
2023-05-20T05:28:15.340Z,75.83
2023-05-20T05:30:57.147Z,75.80
2023-05-20T05:33:44.730Z,75.29
2023-05-20T05:36:29.419Z,75.56
2023-05-20T05:39:08.282Z,75.48
2023-05-20T05:41:45.320Z,75.20
2023-05-20T05:44:26.346Z,75.00
2023-05-20T05:47:12.618Z,74.94
2023-05-20T05:49:53.910Z,75.00
2023-05-20T05:52:30.584Z,75.01
2023-05-20T05:55:09.024Z,74.71
2023-05-20T05:57:48.357Z,74.61
2023-05-20T06:00:26.953Z,74.45
2023-05-20T06:03:04.058Z,74.22
2023-05-20T06:05:42.814Z,74.39
2023-05-20T06:08:22.391Z,74.43
2023-05-20T06:11:05.960Z,74.35
2023-05-20T06:13:40.633Z,74.30
2023-05-20T06:16:19.919Z,74.09
2023-05-20T06:19:03.184Z,73.88
2023-05-20T06:21:41.455Z,73.44
2023-05-20T06:24:17.451Z,73.19
2023-05-20T06:26:59.213Z,73.11
2023-05-20T06:29:36.681Z,73.02
2023-05-20T06:32:12.907Z,72.96
2023-05-20T06:34:59.424Z,72.96
2023-05-20T06:37:36.591Z,72.50
2023-05-20T06:40:19.387Z,72.32
2023-05-20T06:42:56.556Z,72.03
2023-05-20T06:45:58.410Z,70.73
2023-05-20T06:48:43.434Z,70.91
2023-05-20T06:51:28.792Z,71.02
2023-05-20T06:54:14.137Z,69.91
2023-05-20T06:56:54.021Z,69.97
2023-05-20T06:59:34.176Z,69.88
2023-05-20T07:02:15.776Z,69.21
2023-05-20T07:04:55.636Z,69.13
2023-05-20T07:07:32.944Z,68.82
2023-05-20T07:10:13.105Z,68.54
2023-05-20T07:12:54.897Z,67.58
2023-05-20T07:15:33.961Z,68.00
2023-05-20T07:18:07.503Z,67.49
2023-05-20T07:20:45.942Z,66.91
2023-05-20T07:23:54.328Z,67.12
2023-05-20T07:26:34.462Z,67.13
2023-05-20T07:29:12.822Z,66.92
2023-05-20T07:31:49.593Z,66.30
2023-05-20T07:34:35.740Z,65.92
2023-05-20T07:37:15.100Z,66.11
2023-05-20T07:39:53.581Z,66.15
2023-05-20T07:42:30.891Z,65.99
2023-05-20T07:45:10.577Z,65.28
2023-05-20T07:47:47.787Z,64.27
2023-05-20T07:50:30.602Z,63.52
2023-05-20T07:53:07.206Z,64.53
2023-05-20T07:55:51.639Z,64.86
2023-05-20T07:58:28.041Z,64.49
2023-05-20T08:01:09.502Z,64.10
2023-05-20T08:03:45.450Z,64.36
2023-05-20T08:06:29.957Z,64.45
2023-05-20T08:09:12.490Z,64.40
2023-05-20T08:11:54.720Z,64.45
2023-05-20T08:14:32.550Z,64.06
2023-05-20T08:17:06.359Z,64.04
2023-05-20T08:19:43.637Z,63.98
2023-05-20T08:22:28.971Z,64.00
2023-05-20T08:25:13.002Z,63.68
2023-05-20T08:27:56.295Z,63.21
2023-05-20T08:30:36.529Z,63.53
2023-05-20T08:33:15.314Z,63.86
2023-05-20T08:35:54.787Z,63.69
2023-05-20T08:38:41.472Z,62.79
2023-05-20T08:41:16.190Z,63.16
2023-05-20T08:43:58.352Z,63.16
2023-05-20T08:46:35.858Z,62.94
2023-05-20T08:49:16.549Z,62.47
2023-05-20T08:51:57.585Z,62.81
2023-05-20T08:54:46.493Z,62.87
2023-05-20T08:57:28.972Z,62.66
2023-05-20T09:00:09.536Z,62.57
2023-05-20T09:02:50.364Z,62.44
2023-05-20T09:05:29.715Z,62.31
2023-05-20T09:08:15.302Z,62.02
2023-05-20T09:10:50.989Z,62.47
2023-05-20T09:13:34.823Z,62.64
2023-05-20T09:16:21.216Z,63.28
2023-05-20T09:19:00.993Z,63.01
2023-05-20T09:21:40.282Z,63.02
2023-05-20T09:24:18.868Z,62.89
2023-05-20T09:26:56.578Z,62.40
2023-05-20T09:29:31.321Z,62.26
2023-05-20T09:32:11.778Z,61.88
2023-05-20T09:34:50.581Z,61.73
2023-05-20T09:37:30.694Z,61.73
2023-05-20T09:40:11.439Z,61.65
2023-05-20T09:42:55.161Z,60.56
2023-05-20T09:45:35.120Z,60.76
2023-05-20T09:48:13.308Z,61.07
2023-05-20T09:50:55.196Z,60.69
2023-05-20T09:53:32.633Z,60.75
2023-05-20T09:56:11.299Z,60.41
2023-05-20T09:58:50.085Z,61.01
2023-05-20T10:01:26.797Z,60.58
2023-05-20T10:04:09.132Z,60.53
2023-05-20T10:07:12.940Z,60.65
2023-05-20T10:10:02.323Z,60.24
2023-05-20T10:12:49.156Z,60.34
2023-05-20T10:15:37.071Z,60.56
2023-05-20T10:18:29.613Z,59.77
2023-05-20T10:21:04.602Z,59.80
2023-05-20T10:23:41.007Z,59.93
2023-05-20T10:26:19.120Z,59.98
2023-05-20T10:29:04.834Z,60.24
2023-05-20T10:31:50.050Z,60.22
2023-05-20T10:34:27.780Z,60.50
2023-05-20T10:37:07.371Z,60.85
2023-05-20T10:39:50.617Z,60.64
2023-05-20T10:42:34.144Z,59.88
2023-05-20T10:45:18.616Z,60.05
2023-05-20T10:48:01.227Z,59.77
2023-05-20T10:50:39.269Z,59.37
2023-05-20T10:53:29.742Z,59.57
2023-05-20T10:56:20.985Z,60.02
2023-05-20T10:58:58.845Z,60.25
2023-05-20T11:01:35.523Z,59.34
2023-05-20T11:04:13.048Z,59.45
2023-05-20T11:06:59.202Z,59.35
2023-05-20T11:09:35.681Z,59.58
2023-05-20T11:12:16.860Z,59.83
2023-05-20T11:14:55.738Z,58.90
2023-05-20T11:17:35.686Z,58.36
2023-05-20T11:20:18.591Z,58.58
2023-05-20T11:22:57.640Z,59.00
2023-05-20T11:25:33.787Z,57.99
2023-05-20T11:28:15.568Z,57.13
2023-05-20T11:30:54.277Z,57.33
2023-05-20T11:33:31.412Z,57.31
2023-05-20T11:36:27.486Z,56.48
2023-05-20T11:39:06.509Z,56.18
2023-05-20T11:41:48.272Z,55.81
2023-05-20T11:44:25.703Z,55.90
2023-05-20T11:47:09.937Z,56.48
2023-05-20T11:49:46.278Z,57.01
2023-05-20T11:52:23.623Z,56.72
2023-05-20T11:54:58.767Z,56.62
2023-05-20T11:57:35.368Z,56.81
2023-05-20T12:00:19.550Z,56.97
2023-05-20T12:02:59.873Z,56.71
2023-05-20T12:05:42.109Z,55.91
2023-05-20T12:08:23.592Z,56.08
2023-05-20T12:11:01.788Z,56.09
2023-05-20T12:13:38.000Z,56.63
2023-05-20T12:16:18.573Z,56.64
2023-05-20T12:18:58.716Z,56.47
2023-05-20T12:21:37.698Z,56.55
2023-05-20T12:24:16.312Z,56.40
2023-05-20T12:26:55.090Z,56.30
2023-05-20T12:29:33.384Z,56.71
2023-05-20T12:32:12.614Z,56.49
2023-05-20T12:35:00.934Z,56.32
2023-05-20T12:37:39.334Z,56.72
2023-05-20T12:40:21.105Z,56.87
2023-05-20T12:42:59.443Z,56.53
2023-05-20T12:45:37.337Z,56.59
2023-05-20T12:48:15.775Z,56.71
2023-05-20T12:50:52.673Z,56.98
2023-05-20T12:53:45.397Z,56.86
2023-05-20T12:56:22.395Z,56.48
2023-05-20T12:59:06.422Z,56.35
2023-05-20T13:01:41.828Z,56.31
2023-05-20T13:04:19.695Z,56.57
2023-05-20T13:06:58.244Z,56.94
2023-05-20T13:09:33.246Z,56.69
2023-05-20T13:12:12.955Z,56.00
2023-05-20T13:15:04.733Z,55.87
2023-05-20T13:17:42.014Z,56.00
2023-05-20T13:20:20.792Z,56.15
2023-05-20T13:22:56.073Z,55.81
2023-05-20T13:25:41.346Z,56.18
2023-05-20T13:28:19.026Z,56.04
2023-05-20T13:30:56.819Z,55.95
2023-05-20T13:33:35.741Z,55.92
2023-05-20T13:36:11.937Z,55.85
2023-05-20T13:38:50.145Z,55.79
2023-05-20T13:41:28.894Z,55.72
2023-05-20T13:44:06.476Z,55.81
2023-05-20T13:46:42.234Z,56.27
2023-05-20T13:49:22.449Z,56.56
2023-05-20T13:52:03.476Z,56.39
2023-05-20T13:54:43.648Z,56.47
2023-05-20T13:57:19.015Z,56.44
2023-05-20T13:59:53.719Z,56.95
2023-05-20T14:02:28.831Z,56.94
2023-05-20T14:05:06.331Z,56.10
2023-05-20T14:07:48.329Z,55.71
2023-05-20T14:10:30.348Z,55.33
2023-05-20T14:13:06.715Z,55.18
2023-05-20T14:15:44.149Z,55.40
2023-05-20T14:18:22.056Z,55.55
2023-05-20T14:20:58.860Z,55.24
2023-05-20T14:23:35.531Z,54.94
2023-05-20T14:26:19.582Z,54.92
2023-05-20T14:28:57.783Z,55.10
2023-05-20T14:31:35.629Z,54.95
2023-05-20T14:34:13.743Z,54.98
2023-05-20T14:36:49.111Z,55.50
2023-05-20T14:39:24.009Z,55.34
2023-05-20T14:42:01.269Z,55.44
2023-05-20T14:44:36.073Z,55.36
2023-05-20T14:47:11.486Z,55.31
2023-05-20T14:49:46.201Z,55.52
2023-05-20T14:52:23.960Z,55.45
2023-05-20T14:55:02.158Z,55.31
2023-05-20T14:57:41.822Z,55.57
2023-05-20T15:00:19.608Z,55.30
2023-05-20T15:02:57.196Z,55.38
2023-05-20T15:05:32.897Z,55.27
2023-05-20T15:08:08.202Z,55.36
2023-05-20T15:10:43.168Z,55.13
2023-05-20T15:13:20.250Z,54.78
2023-05-20T15:15:55.337Z,54.29
2023-05-20T15:18:32.789Z,54.18
2023-05-20T15:21:09.431Z,54.38
2023-05-20T15:23:44.569Z,53.89
2023-05-20T15:26:17.957Z,54.02
2023-05-20T15:28:53.045Z,54.76
2023-05-20T15:31:29.991Z,55.33
2023-05-20T15:34:06.145Z,54.07
2023-05-20T15:36:42.626Z,53.81
2023-05-20T15:39:19.810Z,54.16
2023-05-20T15:41:55.323Z,53.32
2023-05-20T15:44:31.769Z,52.67
2023-05-20T15:47:09.587Z,52.86
2023-05-20T15:49:46.876Z,52.64
2023-05-20T15:52:21.899Z,52.60
2023-05-20T15:54:58.149Z,52.94
2023-05-20T15:57:33.415Z,53.18
2023-05-20T16:00:18.343Z,53.38
2023-05-20T16:02:57.857Z,53.79
2023-05-20T16:05:36.207Z,53.78
2023-05-20T16:08:10.245Z,53.56
2023-05-20T16:10:47.242Z,53.60
2023-05-20T16:13:24.667Z,53.55
2023-05-20T16:16:01.456Z,53.56
2023-05-20T16:18:41.796Z,53.78
2023-05-20T16:21:20.208Z,53.57
2023-05-20T16:23:56.872Z,53.45
2023-05-20T16:26:34.243Z,53.51
2023-05-20T16:29:11.562Z,53.80
2023-05-20T16:31:48.531Z,53.82
2023-05-20T16:34:23.945Z,53.56
2023-05-20T16:37:02.499Z,53.36
2023-05-20T16:39:37.810Z,53.77
2023-05-20T16:42:15.979Z,53.85
2023-05-20T16:44:54.942Z,54.05
2023-05-20T16:47:30.561Z,54.05
2023-05-20T16:50:09.366Z,54.20
2023-05-20T16:52:44.807Z,54.21
2023-05-20T16:55:20.796Z,54.22
2023-05-20T16:57:57.146Z,54.15
2023-05-20T17:00:34.713Z,54.19
2023-05-20T17:03:18.176Z,54.39
2023-05-20T17:05:53.926Z,54.61
2023-05-20T17:08:29.923Z,54.68
2023-05-20T17:11:05.556Z,54.92
2023-05-20T17:13:41.697Z,55.44
2023-05-20T17:16:18.659Z,55.64
2023-05-20T17:18:59.614Z,55.44
2023-05-20T17:21:36.518Z,55.77
2023-05-20T17:24:10.859Z,55.98
2023-05-20T17:26:44.806Z,55.97
2023-05-20T17:29:21.729Z,55.95
2023-05-20T17:31:59.522Z,55.73
2023-05-20T17:34:36.467Z,55.69
2023-05-20T17:37:12.976Z,55.79
2023-05-20T17:39:53.183Z,55.98
2023-05-20T17:42:27.836Z,56.00
2023-05-20T17:45:05.223Z,56.15
2023-05-20T17:47:48.155Z,56.28
2023-05-20T17:50:27.214Z,56.35
2023-05-20T17:53:04.945Z,56.48
2023-05-20T17:55:44.364Z,56.52
2023-05-20T17:58:22.330Z,56.74
2023-05-20T18:00:56.597Z,56.77
2023-05-20T18:03:33.650Z,56.90
2023-05-20T18:06:12.316Z,57.01
2023-05-20T18:08:53.192Z,57.07
2023-05-20T18:11:31.484Z,57.33
2023-05-20T18:14:07.644Z,57.66
2023-05-20T18:16:46.085Z,57.73
2023-05-20T18:19:28.762Z,57.67
2023-05-20T18:22:07.954Z,57.95
2023-05-20T18:24:50.751Z,58.21
2023-05-20T18:27:26.092Z,58.41
2023-05-20T18:30:03.156Z,58.67
2023-05-20T18:32:40.134Z,58.78
2023-05-20T18:35:16.231Z,58.87
2023-05-20T18:37:52.611Z,59.36
2023-05-20T18:40:30.967Z,59.53
2023-05-20T18:43:06.452Z,59.64
2023-05-20T18:45:42.599Z,59.89
2023-05-20T18:48:28.904Z,60.00
2023-05-20T18:51:06.193Z,60.18
2023-05-20T18:53:40.610Z,60.26
2023-05-20T18:56:23.430Z,60.70
2023-05-20T18:59:06.702Z,60.91
2023-05-20T19:01:43.354Z,61.52
2023-05-20T19:04:21.011Z,62.19
2023-05-20T19:06:56.157Z,63.10
2023-05-20T19:09:31.931Z,63.81
2023-05-20T19:12:08.801Z,64.21
2023-05-20T19:14:45.663Z,64.68
2023-05-20T19:17:21.496Z,64.97
2023-05-20T19:19:56.383Z,65.64
2023-05-20T19:22:34.518Z,66.06
2023-05-20T19:25:18.125Z,66.51
2023-05-20T19:27:55.645Z,67.33
2023-05-20T19:30:36.283Z,67.83
2023-05-20T19:33:13.479Z,68.22
2023-05-20T19:35:51.987Z,68.55
2023-05-20T19:38:28.428Z,68.91
2023-05-20T19:41:03.967Z,68.96
2023-05-20T19:43:40.047Z,69.15
2023-05-20T19:46:14.957Z,69.33
2023-05-20T19:48:51.937Z,69.52
2023-05-20T19:51:33.249Z,69.30
2023-05-20T19:54:11.152Z,69.51
2023-05-20T19:56:45.282Z,69.51
2023-05-20T19:59:23.165Z,69.50
2023-05-20T20:02:03.744Z,69.75
2023-05-20T20:04:39.810Z,69.84
2023-05-20T20:07:17.966Z,70.03
2023-05-20T20:09:55.966Z,70.09
2023-05-20T20:12:33.247Z,69.97
2023-05-20T20:15:14.806Z,69.97
2023-05-20T20:17:53.117Z,70.29
2023-05-20T20:20:31.068Z,70.35
2023-05-20T20:23:05.984Z,70.54
2023-05-20T20:25:48.151Z,70.70
2023-05-20T20:28:23.292Z,70.55
2023-05-20T20:31:00.692Z,70.79
2023-05-20T20:33:38.610Z,70.53
2023-05-20T20:36:17.147Z,70.59
2023-05-20T20:38:54.455Z,70.99
2023-05-20T20:41:34.361Z,70.87
2023-05-20T20:44:16.316Z,70.70
2023-05-20T20:46:55.627Z,70.72
2023-05-20T20:49:35.998Z,70.54
2023-05-20T20:52:16.127Z,70.55
2023-05-20T20:54:54.763Z,70.41
2023-05-20T20:57:32.132Z,70.33
2023-05-20T21:00:18.384Z,70.34
2023-05-20T21:02:58.495Z,70.72
2023-05-20T21:05:39.160Z,70.75
2023-05-20T21:08:19.401Z,70.94
2023-05-20T21:10:54.989Z,70.80
2023-05-20T21:13:29.601Z,70.87
2023-05-20T21:16:10.950Z,70.76
2023-05-20T21:18:48.939Z,70.70
2023-05-20T21:21:29.967Z,70.81
2023-05-20T21:24:29.735Z,70.79
2023-05-20T21:27:12.590Z,71.07
2023-05-20T21:29:49.065Z,71.31
2023-05-20T21:32:28.801Z,71.22
2023-05-20T21:35:02.088Z,71.17
2023-05-20T21:37:37.105Z,71.22
2023-05-20T21:40:17.664Z,71.11
2023-05-20T21:42:53.611Z,71.21
2023-05-20T21:45:31.393Z,71.17
2023-05-20T21:48:06.424Z,70.98
2023-05-20T21:50:42.451Z,71.16
2023-05-20T21:53:19.393Z,71.14
2023-05-20T21:55:56.993Z,71.22
2023-05-20T21:58:41.256Z,71.23
2023-05-20T22:01:16.629Z,71.19
2023-05-20T22:03:53.600Z,71.27
2023-05-20T22:06:37.110Z,71.40
2023-05-20T22:09:13.500Z,71.51
2023-05-20T22:11:51.542Z,71.63
2023-05-20T22:14:28.289Z,71.66
2023-05-20T22:17:04.225Z,71.68
2023-05-20T22:19:39.580Z,71.80
2023-05-20T22:22:16.603Z,71.72
2023-05-20T22:24:53.860Z,71.62
2023-05-20T22:27:29.530Z,71.57
2023-05-20T22:30:14.831Z,71.51
2023-05-20T22:32:49.677Z,71.56
2023-05-20T22:35:27.627Z,71.53
2023-05-20T22:38:09.201Z,71.44
2023-05-20T22:40:56.756Z,71.36
2023-05-20T22:43:30.693Z,71.36
2023-05-20T22:46:14.080Z,71.32
2023-05-20T22:49:04.325Z,71.16
2023-05-20T22:51:41.547Z,71.19
2023-05-20T22:54:17.603Z,71.30
2023-05-20T22:56:58.685Z,71.36
2023-05-20T22:59:35.240Z,71.47
2023-05-20T23:02:13.229Z,71.40
2023-05-20T23:04:50.422Z,71.41
2023-05-20T23:07:26.321Z,71.45
2023-05-20T23:10:06.459Z,71.65
2023-05-20T23:12:47.559Z,71.71
2023-05-20T23:15:25.443Z,71.77
2023-05-20T23:18:06.476Z,71.91
2023-05-20T23:20:42.291Z,71.91
2023-05-20T23:23:30.548Z,71.98
2023-05-20T23:26:08.736Z,71.91
2023-05-20T23:28:46.415Z,72.23
2023-05-20T23:31:24.820Z,72.22
2023-05-20T23:34:02.084Z,72.21
2023-05-20T23:36:46.770Z,72.16
2023-05-20T23:39:21.131Z,72.16
2023-05-20T23:41:57.637Z,71.96
2023-05-20T23:44:33.461Z,71.83
2023-05-20T23:47:10.070Z,71.91
2023-05-20T23:49:49.255Z,71.90
2023-05-20T23:52:25.682Z,71.92
2023-05-20T23:55:04.314Z,72.02
2023-05-20T23:57:40.096Z,72.01
